sensor_id;sensor_type;location;lat;lon;timestamp;temperature;humidity
4701;DHT22;8724;51.272;6.554;2023-04-07T00:02:38;11.00;99.90
4701;DHT22;8724;51.272;6.554;2023-04-07T00:05:10;11.00;99.90
4701;DHT22;8724;51.272;6.554;2023-04-07T00:07:39;10.90;99.90
4701;DHT22;8724;51.272;6.554;2023-04-07T00:10:22;11.00;99.90
4701;DHT22;8724;51.272;6.554;2023-04-07T00:12:52;11.00;99.90
4701;DHT22;8724;51.272;6.554;2023-04-07T00:15:20;11.00;99.90
4701;DHT22;8724;51.272;6.554;2023-04-07T00:17:49;10.90;99.90
4701;DHT22;8724;51.272;6.554;2023-04-07T00:20:18;11.00;99.90
4701;DHT22;8724;51.272;6.554;2023-04-07T00:22:47;10.90;99.90
4701;DHT22;8724;51.272;6.554;2023-04-07T00:25:15;11.00;99.90
4701;DHT22;8724;51.272;6.554;2023-04-07T00:27:44;11.00;99.90
4701;DHT22;8724;51.272;6.554;2023-04-07T00:30:14;11.00;99.90
4701;DHT22;8724;51.272;6.554;2023-04-07T00:32:44;11.00;99.90
4701;DHT22;8724;51.272;6.554;2023-04-07T00:35:12;11.00;99.90
4701;DHT22;8724;51.272;6.554;2023-04-07T00:37:41;11.00;99.90
4701;DHT22;8724;51.272;6.554;2023-04-07T00:40:09;11.00;99.90
4701;DHT22;8724;51.272;6.554;2023-04-07T00:42:38;11.00;99.90
4701;DHT22;8724;51.272;6.554;2023-04-07T00:45:07;11.00;99.90
4701;DHT22;8724;51.272;6.554;2023-04-07T00:47:39;11.00;99.90
4701;DHT22;8724;51.272;6.554;2023-04-07T00:50:08;10.90;99.90
4701;DHT22;8724;51.272;6.554;2023-04-07T00:52:36;10.90;99.90
4701;DHT22;8724;51.272;6.554;2023-04-07T00:55:07;10.90;99.90
4701;DHT22;8724;51.272;6.554;2023-04-07T00:57:35;10.90;99.90
4701;DHT22;8724;51.272;6.554;2023-04-07T01:00:06;10.90;99.90
4701;DHT22;8724;51.272;6.554;2023-04-07T01:02:39;10.90;99.90
4701;DHT22;8724;51.272;6.554;2023-04-07T01:05:15;10.90;99.90
4701;DHT22;8724;51.272;6.554;2023-04-07T01:07:51;10.90;99.90
4701;DHT22;8724;51.272;6.554;2023-04-07T01:10:27;10.90;99.90
4701;DHT22;8724;51.272;6.554;2023-04-07T01:13:09;10.90;99.90
4701;DHT22;8724;51.272;6.554;2023-04-07T01:15:39;10.90;99.90
4701;DHT22;8724;51.272;6.554;2023-04-07T01:18:12;10.90;99.90
4701;DHT22;8724;51.272;6.554;2023-04-07T01:20:45;10.90;99.90
4701;DHT22;8724;51.272;6.554;2023-04-07T01:23:22;10.80;99.90
4701;DHT22;8724;51.272;6.554;2023-04-07T01:31:41;10.80;99.90
4701;DHT22;8724;51.272;6.554;2023-04-07T01:34:11;10.80;99.90
4701;DHT22;8724;51.272;6.554;2023-04-07T01:36:40;10.80;99.90
4701;DHT22;8724;51.272;6.554;2023-04-07T01:39:10;10.80;99.90
4701;DHT22;8724;51.272;6.554;2023-04-07T01:41:40;10.80;99.90
4701;DHT22;8724;51.272;6.554;2023-04-07T01:44:09;10.80;99.90
4701;DHT22;8724;51.272;6.554;2023-04-07T01:46:39;10.80;99.90
4701;DHT22;8724;51.272;6.554;2023-04-07T01:49:09;10.80;99.90
4701;DHT22;8724;51.272;6.554;2023-04-07T01:51:39;10.80;99.90
4701;DHT22;8724;51.272;6.554;2023-04-07T01:54:08;10.80;99.90
4701;DHT22;8724;51.272;6.554;2023-04-07T01:56:37;10.90;99.90
4701;DHT22;8724;51.272;6.554;2023-04-07T01:59:06;10.80;99.90
4701;DHT22;8724;51.272;6.554;2023-04-07T02:01:35;10.90;99.90
4701;DHT22;8724;51.272;6.554;2023-04-07T02:04:10;10.90;99.90
4701;DHT22;8724;51.272;6.554;2023-04-07T02:06:43;10.80;99.90
4701;DHT22;8724;51.272;6.554;2023-04-07T02:09:20;10.80;99.90
4701;DHT22;8724;51.272;6.554;2023-04-07T02:11:51;10.90;99.90
4701;DHT22;8724;51.272;6.554;2023-04-07T02:14:23;10.90;99.90
4701;DHT22;8724;51.272;6.554;2023-04-07T02:17:00;10.80;99.90
4701;DHT22;8724;51.272;6.554;2023-04-07T02:19:31;10.80;99.90
4701;DHT22;8724;51.272;6.554;2023-04-07T02:22:02;10.80;99.90
4701;DHT22;8724;51.272;6.554;2023-04-07T02:24:31;10.80;99.90
4701;DHT22;8724;51.272;6.554;2023-04-07T02:27:01;10.80;99.90
4701;DHT22;8724;51.272;6.554;2023-04-07T02:29:29;10.70;99.90
4701;DHT22;8724;51.272;6.554;2023-04-07T02:31:58;10.60;99.90
4701;DHT22;8724;51.272;6.554;2023-04-07T02:34:28;10.60;99.90
4701;DHT22;8724;51.272;6.554;2023-04-07T02:37:00;10.50;99.90
4701;DHT22;8724;51.272;6.554;2023-04-07T02:39:32;10.50;99.90
4701;DHT22;8724;51.272;6.554;2023-04-07T02:42:00;10.40;99.90
4701;DHT22;8724;51.272;6.554;2023-04-07T02:44:29;10.40;99.90
4701;DHT22;8724;51.272;6.554;2023-04-07T02:46:58;10.40;99.90
4701;DHT22;8724;51.272;6.554;2023-04-07T02:49:26;10.40;99.90
4701;DHT22;8724;51.272;6.554;2023-04-07T02:51:55;10.40;99.90
4701;DHT22;8724;51.272;6.554;2023-04-07T02:54:25;10.40;99.90
4701;DHT22;8724;51.272;6.554;2023-04-07T02:56:54;10.20;99.90
4701;DHT22;8724;51.272;6.554;2023-04-07T02:59:24;10.30;99.90
4701;DHT22;8724;51.272;6.554;2023-04-07T03:01:52;10.40;99.90
4701;DHT22;8724;51.272;6.554;2023-04-07T03:04:21;10.40;99.90
4701;DHT22;8724;51.272;6.554;2023-04-07T03:06:50;10.30;99.90
4701;DHT22;8724;51.272;6.554;2023-04-07T03:09:19;10.30;99.90
4701;DHT22;8724;51.272;6.554;2023-04-07T03:11:49;10.30;99.90
4701;DHT22;8724;51.272;6.554;2023-04-07T03:14:18;10.20;99.90
4701;DHT22;8724;51.272;6.554;2023-04-07T03:16:49;10.20;99.90
4701;DHT22;8724;51.272;6.554;2023-04-07T03:19:17;10.20;99.90
4701;DHT22;8724;51.272;6.554;2023-04-07T03:21:48;10.20;99.90
4701;DHT22;8724;51.272;6.554;2023-04-07T03:24:17;10.20;99.90
4701;DHT22;8724;51.272;6.554;2023-04-07T03:26:46;10.20;99.90
4701;DHT22;8724;51.272;6.554;2023-04-07T03:29:28;10.20;99.90
4701;DHT22;8724;51.272;6.554;2023-04-07T03:31:57;10.20;99.90
4701;DHT22;8724;51.272;6.554;2023-04-07T03:34:26;10.20;99.90
4701;DHT22;8724;51.272;6.554;2023-04-07T03:36:57;10.30;99.90
4701;DHT22;8724;51.272;6.554;2023-04-07T03:39:28;10.30;99.90
4701;DHT22;8724;51.272;6.554;2023-04-07T03:41:59;10.20;99.90
4701;DHT22;8724;51.272;6.554;2023-04-07T03:44:33;10.30;99.90
4701;DHT22;8724;51.272;6.554;2023-04-07T03:47:02;10.30;99.90
4701;DHT22;8724;51.272;6.554;2023-04-07T03:49:33;10.20;99.90
4701;DHT22;8724;51.272;6.554;2023-04-07T03:52:05;10.20;99.90
4701;DHT22;8724;51.272;6.554;2023-04-07T03:54:33;10.30;99.90
4701;DHT22;8724;51.272;6.554;2023-04-07T03:57:03;10.20;99.90
4701;DHT22;8724;51.272;6.554;2023-04-07T03:59:37;10.20;99.90
4701;DHT22;8724;51.272;6.554;2023-04-07T04:02:06;10.20;99.90
4701;DHT22;8724;51.272;6.554;2023-04-07T04:04:36;10.30;99.90
4701;DHT22;8724;51.272;6.554;2023-04-07T04:07:06;10.30;99.90
4701;DHT22;8724;51.272;6.554;2023-04-07T04:09:44;10.30;99.90
4701;DHT22;8724;51.272;6.554;2023-04-07T04:12:13;10.30;99.90
4701;DHT22;8724;51.272;6.554;2023-04-07T04:14:51;10.30;99.90
4701;DHT22;8724;51.272;6.554;2023-04-07T04:17:21;10.30;99.90
4701;DHT22;8724;51.272;6.554;2023-04-07T04:19:50;10.30;99.90
4701;DHT22;8724;51.272;6.554;2023-04-07T04:22:24;10.30;99.90
4701;DHT22;8724;51.272;6.554;2023-04-07T04:24:56;10.30;99.90
4701;DHT22;8724;51.272;6.554;2023-04-07T04:27:27;10.30;99.90
4701;DHT22;8724;51.272;6.554;2023-04-07T04:30:05;10.30;99.90
4701;DHT22;8724;51.272;6.554;2023-04-07T04:32:39;10.30;99.90
4701;DHT22;8724;51.272;6.554;2023-04-07T04:35:09;10.30;99.90
4701;DHT22;8724;51.272;6.554;2023-04-07T04:37:47;10.30;99.90
4701;DHT22;8724;51.272;6.554;2023-04-07T04:40:16;10.30;99.90
4701;DHT22;8724;51.272;6.554;2023-04-07T04:42:47;10.30;99.90
4701;DHT22;8724;51.272;6.554;2023-04-07T04:45:21;10.20;99.90
4701;DHT22;8724;51.272;6.554;2023-04-07T04:47:49;10.20;99.90
4701;DHT22;8724;51.272;6.554;2023-04-07T04:50:18;10.10;99.90
4701;DHT22;8724;51.272;6.554;2023-04-07T04:52:49;10.10;99.90
4701;DHT22;8724;51.272;6.554;2023-04-07T04:55:21;10.10;99.90
4701;DHT22;8724;51.272;6.554;2023-04-07T04:57:52;10.10;99.90
4701;DHT22;8724;51.272;6.554;2023-04-07T05:00:32;10.10;99.90
4701;DHT22;8724;51.272;6.554;2023-04-07T05:03:04;10.10;99.90
4701;DHT22;8724;51.272;6.554;2023-04-07T05:05:37;10.20;99.90
4701;DHT22;8724;51.272;6.554;2023-04-07T05:08:05;10.10;99.90
4701;DHT22;8724;51.272;6.554;2023-04-07T05:10:37;10.20;99.90
4701;DHT22;8724;51.272;6.554;2023-04-07T05:13:12;10.10;99.90
4701;DHT22;8724;51.272;6.554;2023-04-07T05:15:44;10.10;99.90
4701;DHT22;8724;51.272;6.554;2023-04-07T05:18:13;10.10;99.90
4701;DHT22;8724;51.272;6.554;2023-04-07T05:20:43;10.10;99.90
4701;DHT22;8724;51.272;6.554;2023-04-07T05:23:14;10.10;99.90
4701;DHT22;8724;51.272;6.554;2023-04-07T05:25:48;10.10;99.90
4701;DHT22;8724;51.272;6.554;2023-04-07T05:28:18;10.10;99.90
4701;DHT22;8724;51.272;6.554;2023-04-07T05:30:50;10.10;99.90
4701;DHT22;8724;51.272;6.554;2023-04-07T05:33:29;10.10;99.90
4701;DHT22;8724;51.272;6.554;2023-04-07T05:35:59;10.10;99.90
4701;DHT22;8724;51.272;6.554;2023-04-07T05:38:31;10.20;99.90
4701;DHT22;8724;51.272;6.554;2023-04-07T05:41:07;10.10;99.90
4701;DHT22;8724;51.272;6.554;2023-04-07T05:43:39;10.00;99.90
4701;DHT22;8724;51.272;6.554;2023-04-07T05:46:10;10.10;99.90
4701;DHT22;8724;51.272;6.554;2023-04-07T05:48:53;10.20;99.90
4701;DHT22;8724;51.272;6.554;2023-04-07T05:51:31;10.10;99.90
4701;DHT22;8724;51.272;6.554;2023-04-07T05:54:05;10.10;99.90
4701;DHT22;8724;51.272;6.554;2023-04-07T05:56:34;10.10;99.90
4701;DHT22;8724;51.272;6.554;2023-04-07T05:59:04;10.10;99.90
4701;DHT22;8724;51.272;6.554;2023-04-07T06:01:35;10.10;99.90
4701;DHT22;8724;51.272;6.554;2023-04-07T06:04:04;10.10;99.90
4701;DHT22;8724;51.272;6.554;2023-04-07T06:06:34;10.10;99.90
4701;DHT22;8724;51.272;6.554;2023-04-07T06:09:03;10.10;99.90
4701;DHT22;8724;51.272;6.554;2023-04-07T06:11:34;10.10;99.90
4701;DHT22;8724;51.272;6.554;2023-04-07T06:14:04;10.10;99.90
4701;DHT22;8724;51.272;6.554;2023-04-07T06:16:37;10.20;99.90
4701;DHT22;8724;51.272;6.554;2023-04-07T06:19:06;10.20;99.90
4701;DHT22;8724;51.272;6.554;2023-04-07T06:21:35;10.20;99.90
4701;DHT22;8724;51.272;6.554;2023-04-07T06:24:07;10.20;99.90
4701;DHT22;8724;51.272;6.554;2023-04-07T06:26:35;10.20;99.90
4701;DHT22;8724;51.272;6.554;2023-04-07T06:29:04;10.20;99.90
4701;DHT22;8724;51.272;6.554;2023-04-07T06:31:36;10.20;99.90
4701;DHT22;8724;51.272;6.554;2023-04-07T06:34:05;10.20;99.90
4701;DHT22;8724;51.272;6.554;2023-04-07T06:36:35;10.20;99.90
4701;DHT22;8724;51.272;6.554;2023-04-07T06:39:05;10.30;99.90
4701;DHT22;8724;51.272;6.554;2023-04-07T06:41:34;10.30;99.90
4701;DHT22;8724;51.272;6.554;2023-04-07T06:44:03;10.30;99.90
4701;DHT22;8724;51.272;6.554;2023-04-07T06:46:35;10.20;99.90
4701;DHT22;8724;51.272;6.554;2023-04-07T06:49:06;10.20;99.90
4701;DHT22;8724;51.272;6.554;2023-04-07T06:51:35;10.30;99.90
4701;DHT22;8724;51.272;6.554;2023-04-07T06:54:03;10.30;99.90
4701;DHT22;8724;51.272;6.554;2023-04-07T06:56:33;10.20;99.90
4701;DHT22;8724;51.272;6.554;2023-04-07T06:59:03;10.30;99.90
4701;DHT22;8724;51.272;6.554;2023-04-07T07:01:32;10.30;99.90
4701;DHT22;8724;51.272;6.554;2023-04-07T07:04:05;10.30;99.90
4701;DHT22;8724;51.272;6.554;2023-04-07T07:06:34;10.30;99.90
4701;DHT22;8724;51.272;6.554;2023-04-07T07:09:03;10.30;99.90
4701;DHT22;8724;51.272;6.554;2023-04-07T07:11:32;10.30;99.90
4701;DHT22;8724;51.272;6.554;2023-04-07T07:14:05;10.30;99.90
4701;DHT22;8724;51.272;6.554;2023-04-07T07:16:34;10.40;99.90
4701;DHT22;8724;51.272;6.554;2023-04-07T07:19:05;10.30;99.90
4701;DHT22;8724;51.272;6.554;2023-04-07T07:21:34;10.40;99.90
4701;DHT22;8724;51.272;6.554;2023-04-07T07:24:03;10.40;99.90
4701;DHT22;8724;51.272;6.554;2023-04-07T07:26:31;10.30;99.90
4701;DHT22;8724;51.272;6.554;2023-04-07T07:29:00;10.40;99.90
4701;DHT22;8724;51.272;6.554;2023-04-07T07:31:29;10.30;99.90
4701;DHT22;8724;51.272;6.554;2023-04-07T07:33:59;10.30;99.90
4701;DHT22;8724;51.272;6.554;2023-04-07T07:36:31;10.30;99.90
4701;DHT22;8724;51.272;6.554;2023-04-07T07:39:00;10.40;99.90
4701;DHT22;8724;51.272;6.554;2023-04-07T07:41:29;10.40;99.90
4701;DHT22;8724;51.272;6.554;2023-04-07T07:43:58;10.40;99.90
4701;DHT22;8724;51.272;6.554;2023-04-07T07:46:26;10.30;99.90
4701;DHT22;8724;51.272;6.554;2023-04-07T07:48:55;10.30;99.90
4701;DHT22;8724;51.272;6.554;2023-04-07T07:51:24;10.30;99.90
4701;DHT22;8724;51.272;6.554;2023-04-07T07:53:55;10.30;99.90
4701;DHT22;8724;51.272;6.554;2023-04-07T07:56:24;10.40;99.90
4701;DHT22;8724;51.272;6.554;2023-04-07T07:58:53;10.30;99.90
4701;DHT22;8724;51.272;6.554;2023-04-07T08:01:24;10.40;99.90
4701;DHT22;8724;51.272;6.554;2023-04-07T08:03:53;10.40;99.90
4701;DHT22;8724;51.272;6.554;2023-04-07T08:06:22;10.40;99.90
4701;DHT22;8724;51.272;6.554;2023-04-07T08:08:50;10.30;99.90
4701;DHT22;8724;51.272;6.554;2023-04-07T08:11:20;10.30;99.90
4701;DHT22;8724;51.272;6.554;2023-04-07T08:13:49;10.30;99.90
4701;DHT22;8724;51.272;6.554;2023-04-07T08:16:20;10.30;99.90
4701;DHT22;8724;51.272;6.554;2023-04-07T08:18:50;10.30;99.90
4701;DHT22;8724;51.272;6.554;2023-04-07T08:21:18;10.30;99.90
4701;DHT22;8724;51.272;6.554;2023-04-07T08:23:47;10.30;99.90
4701;DHT22;8724;51.272;6.554;2023-04-07T08:26:17;10.30;99.90
4701;DHT22;8724;51.272;6.554;2023-04-07T08:28:48;10.30;99.90
4701;DHT22;8724;51.272;6.554;2023-04-07T08:31:18;10.30;99.90
4701;DHT22;8724;51.272;6.554;2023-04-07T08:33:47;10.30;99.90
4701;DHT22;8724;51.272;6.554;2023-04-07T08:36:20;10.30;99.90
4701;DHT22;8724;51.272;6.554;2023-04-07T08:38:49;10.30;99.90
4701;DHT22;8724;51.272;6.554;2023-04-07T08:41:25;10.20;99.90
4701;DHT22;8724;51.272;6.554;2023-04-07T08:43:57;10.30;99.90
4701;DHT22;8724;51.272;6.554;2023-04-07T08:46:26;10.30;99.90
4701;DHT22;8724;51.272;6.554;2023-04-07T08:48:56;10.30;99.90
4701;DHT22;8724;51.272;6.554;2023-04-07T08:51:28;10.30;99.90
4701;DHT22;8724;51.272;6.554;2023-04-07T08:54:03;10.30;99.90
4701;DHT22;8724;51.272;6.554;2023-04-07T08:56:34;10.30;99.90
4701;DHT22;8724;51.272;6.554;2023-04-07T08:59:06;10.30;99.90
4701;DHT22;8724;51.272;6.554;2023-04-07T09:01:36;10.30;99.90
4701;DHT22;8724;51.272;6.554;2023-04-07T09:04:06;10.30;99.90
4701;DHT22;8724;51.272;6.554;2023-04-07T09:06:36;10.60;99.90
4701;DHT22;8724;51.272;6.554;2023-04-07T09:09:05;10.30;99.90
4701;DHT22;8724;51.272;6.554;2023-04-07T09:11:35;10.00;99.90
4701;DHT22;8724;51.272;6.554;2023-04-07T09:14:03;10.30;99.90
4701;DHT22;8724;51.272;6.554;2023-04-07T09:16:34;10.30;99.90
4701;DHT22;8724;51.272;6.554;2023-04-07T09:19:02;10.30;99.90
4701;DHT22;8724;51.272;6.554;2023-04-07T09:21:47;10.30;99.90
4701;DHT22;8724;51.272;6.554;2023-04-07T09:24:23;10.30;99.90
4701;DHT22;8724;51.272;6.554;2023-04-07T09:27:10;10.30;99.90
4701;DHT22;8724;51.272;6.554;2023-04-07T09:29:44;10.30;99.90
4701;DHT22;8724;51.272;6.554;2023-04-07T09:32:34;10.30;99.90
4701;DHT22;8724;51.272;6.554;2023-04-07T09:35:05;10.30;99.90
4701;DHT22;8724;51.272;6.554;2023-04-07T09:37:34;10.30;99.90
4701;DHT22;8724;51.272;6.554;2023-04-07T09:40:04;10.30;99.90
4701;DHT22;8724;51.272;6.554;2023-04-07T09:42:33;10.30;99.90
4701;DHT22;8724;51.272;6.554;2023-04-07T09:45:04;10.20;99.90
4701;DHT22;8724;51.272;6.554;2023-04-07T09:47:34;10.20;99.90
4701;DHT22;8724;51.272;6.554;2023-04-07T09:50:05;10.20;99.90
4701;DHT22;8724;51.272;6.554;2023-04-07T09:52:50;10.30;99.90
4701;DHT22;8724;51.272;6.554;2023-04-07T09:55:20;10.30;99.90
4701;DHT22;8724;51.272;6.554;2023-04-07T09:57:49;10.30;99.90
4701;DHT22;8724;51.272;6.554;2023-04-07T10:00:18;10.10;99.90
4701;DHT22;8724;51.272;6.554;2023-04-07T10:02:48;10.30;99.90
4701;DHT22;8724;51.272;6.554;2023-04-07T10:05:19;10.30;99.90
4701;DHT22;8724;51.272;6.554;2023-04-07T10:07:51;10.30;99.90
4701;DHT22;8724;51.272;6.554;2023-04-07T10:10:20;10.30;99.90
4701;DHT22;8724;51.272;6.554;2023-04-07T10:12:49;10.00;99.90
4701;DHT22;8724;51.272;6.554;2023-04-07T10:15:21;10.30;99.90
4701;DHT22;8724;51.272;6.554;2023-04-07T10:17:52;10.20;99.90
4701;DHT22;8724;51.272;6.554;2023-04-07T10:20:23;10.30;99.90
4701;DHT22;8724;51.272;6.554;2023-04-07T10:22:52;10.30;99.90
4701;DHT22;8724;51.272;6.554;2023-04-07T10:25:23;10.20;99.90
4701;DHT22;8724;51.272;6.554;2023-04-07T10:27:55;10.20;99.90
4701;DHT22;8724;51.272;6.554;2023-04-07T10:30:28;10.20;99.90
4701;DHT22;8724;51.272;6.554;2023-04-07T10:32:58;10.20;99.90
4701;DHT22;8724;51.272;6.554;2023-04-07T10:35:27;10.20;99.90
4701;DHT22;8724;51.272;6.554;2023-04-07T10:38:10;10.20;99.90
4701;DHT22;8724;51.272;6.554;2023-04-07T10:40:40;10.20;99.90
4701;DHT22;8724;51.272;6.554;2023-04-07T10:43:09;10.20;99.90
4701;DHT22;8724;51.272;6.554;2023-04-07T10:45:56;10.20;99.90
4701;DHT22;8724;51.272;6.554;2023-04-07T10:48:29;10.20;99.90
4701;DHT22;8724;51.272;6.554;2023-04-07T10:51:17;10.20;99.90
4701;DHT22;8724;51.272;6.554;2023-04-07T10:54:19;10.30;99.90
4701;DHT22;8724;51.272;6.554;2023-04-07T10:57:08;10.20;99.90
4701;DHT22;8724;51.272;6.554;2023-04-07T10:59:40;10.20;99.90
4701;DHT22;8724;51.272;6.554;2023-04-07T11:02:32;10.20;99.90
4701;DHT22;8724;51.272;6.554;2023-04-07T11:05:03;10.20;99.90
4701;DHT22;8724;51.272;6.554;2023-04-07T11:07:47;10.30;99.90
4701;DHT22;8724;51.272;6.554;2023-04-07T11:10:16;10.30;99.90
4701;DHT22;8724;51.272;6.554;2023-04-07T11:13:09;10.30;99.90
4701;DHT22;8724;51.272;6.554;2023-04-07T11:15:37;10.30;99.90
4701;DHT22;8724;51.272;6.554;2023-04-07T11:18:15;10.30;99.90
4701;DHT22;8724;51.272;6.554;2023-04-07T11:20:47;10.30;99.90
4701;DHT22;8724;51.272;6.554;2023-04-07T11:23:17;10.30;99.90
4701;DHT22;8724;51.272;6.554;2023-04-07T11:25:48;10.30;99.90
4701;DHT22;8724;51.272;6.554;2023-04-07T11:28:17;10.30;99.90
4701;DHT22;8724;51.272;6.554;2023-04-07T11:30:48;10.40;99.90
4701;DHT22;8724;51.272;6.554;2023-04-07T11:33:19;10.30;99.90
4701;DHT22;8724;51.272;6.554;2023-04-07T11:35:51;10.40;99.90
4701;DHT22;8724;51.272;6.554;2023-04-07T11:38:23;10.40;99.90
4701;DHT22;8724;51.272;6.554;2023-04-07T11:40:52;10.50;99.90
4701;DHT22;8724;51.272;6.554;2023-04-07T11:43:22;10.50;99.90
4701;DHT22;8724;51.272;6.554;2023-04-07T11:46:04;10.50;99.90
4701;DHT22;8724;51.272;6.554;2023-04-07T11:48:34;10.50;99.90
4701;DHT22;8724;51.272;6.554;2023-04-07T11:51:05;10.50;99.90
4701;DHT22;8724;51.272;6.554;2023-04-07T11:53:35;10.50;99.90
4701;DHT22;8724;51.272;6.554;2023-04-07T11:56:06;10.50;99.90
4701;DHT22;8724;51.272;6.554;2023-04-07T11:58:36;10.60;99.90
4701;DHT22;8724;51.272;6.554;2023-04-07T12:01:05;10.50;99.90
4701;DHT22;8724;51.272;6.554;2023-04-07T12:03:36;10.60;99.90
4701;DHT22;8724;51.272;6.554;2023-04-07T12:06:06;10.60;99.90
4701;DHT22;8724;51.272;6.554;2023-04-07T12:08:39;10.60;99.90
4701;DHT22;8724;51.272;6.554;2023-04-07T12:11:08;10.60;99.90
4701;DHT22;8724;51.272;6.554;2023-04-07T12:13:37;10.60;99.90
4701;DHT22;8724;51.272;6.554;2023-04-07T12:16:05;10.70;99.90
4701;DHT22;8724;51.272;6.554;2023-04-07T12:18:34;10.70;99.90
4701;DHT22;8724;51.272;6.554;2023-04-07T12:21:06;10.70;99.90
4701;DHT22;8724;51.272;6.554;2023-04-07T12:23:35;10.70;99.90
4701;DHT22;8724;51.272;6.554;2023-04-07T12:26:03;10.70;99.90
4701;DHT22;8724;51.272;6.554;2023-04-07T12:28:32;10.70;99.90
4701;DHT22;8724;51.272;6.554;2023-04-07T12:31:02;10.70;99.90
4701;DHT22;8724;51.272;6.554;2023-04-07T12:33:30;10.70;99.90
4701;DHT22;8724;51.272;6.554;2023-04-07T12:35:59;10.70;99.90
4701;DHT22;8724;51.272;6.554;2023-04-07T12:38:29;10.70;99.90
4701;DHT22;8724;51.272;6.554;2023-04-07T12:40:57;10.70;99.90
4701;DHT22;8724;51.272;6.554;2023-04-07T12:43:29;10.70;99.90
4701;DHT22;8724;51.272;6.554;2023-04-07T12:45:58;10.70;99.90
4701;DHT22;8724;51.272;6.554;2023-04-07T12:48:26;10.70;99.90
4701;DHT22;8724;51.272;6.554;2023-04-07T12:50:55;10.70;99.90
4701;DHT22;8724;51.272;6.554;2023-04-07T12:53:23;10.70;99.90
4701;DHT22;8724;51.272;6.554;2023-04-07T12:55:53;10.70;99.90
4701;DHT22;8724;51.272;6.554;2023-04-07T12:58:22;10.70;99.90
4701;DHT22;8724;51.272;6.554;2023-04-07T13:00:51;10.70;99.90
4701;DHT22;8724;51.272;6.554;2023-04-07T13:03:19;10.80;99.90
4701;DHT22;8724;51.272;6.554;2023-04-07T13:05:48;10.70;99.90
4701;DHT22;8724;51.272;6.554;2023-04-07T13:08:17;10.70;99.90
4701;DHT22;8724;51.272;6.554;2023-04-07T13:10:45;10.70;99.90
4701;DHT22;8724;51.272;6.554;2023-04-07T13:13:15;10.70;99.90
4701;DHT22;8724;51.272;6.554;2023-04-07T13:15:44;10.80;99.90
4701;DHT22;8724;51.272;6.554;2023-04-07T13:18:12;10.70;99.90
4701;DHT22;8724;51.272;6.554;2023-04-07T13:20:40;10.70;99.90
4701;DHT22;8724;51.272;6.554;2023-04-07T13:23:09;10.70;99.90
4701;DHT22;8724;51.272;6.554;2023-04-07T13:25:37;10.70;99.90
4701;DHT22;8724;51.272;6.554;2023-04-07T13:28:06;10.70;99.90
4701;DHT22;8724;51.272;6.554;2023-04-07T13:30:35;10.70;99.90
4701;DHT22;8724;51.272;6.554;2023-04-07T13:33:04;10.70;99.90
4701;DHT22;8724;51.272;6.554;2023-04-07T13:35:32;10.70;99.90
4701;DHT22;8724;51.272;6.554;2023-04-07T13:38:02;10.70;99.90
4701;DHT22;8724;51.272;6.554;2023-04-07T13:40:30;10.70;99.90
4701;DHT22;8724;51.272;6.554;2023-04-07T13:42:59;10.70;99.90
4701;DHT22;8724;51.272;6.554;2023-04-07T13:45:28;10.70;99.90
4701;DHT22;8724;51.272;6.554;2023-04-07T13:47:58;10.70;99.90
4701;DHT22;8724;51.272;6.554;2023-04-07T13:50:26;10.60;99.90
4701;DHT22;8724;51.272;6.554;2023-04-07T13:52:55;10.70;99.90
4701;DHT22;8724;51.272;6.554;2023-04-07T13:55:23;10.70;99.90
4701;DHT22;8724;51.272;6.554;2023-04-07T13:57:52;10.70;99.90
4701;DHT22;8724;51.272;6.554;2023-04-07T14:00:21;10.70;99.90
4701;DHT22;8724;51.272;6.554;2023-04-07T14:02:50;10.70;99.90
4701;DHT22;8724;51.272;6.554;2023-04-07T14:05:20;10.70;99.90
4701;DHT22;8724;51.272;6.554;2023-04-07T14:07:48;10.70;99.90
4701;DHT22;8724;51.272;6.554;2023-04-07T14:10:17;10.80;99.90
4701;DHT22;8724;51.272;6.554;2023-04-07T14:12:46;10.80;99.90
4701;DHT22;8724;51.272;6.554;2023-04-07T14:15:14;10.70;99.90
4701;DHT22;8724;51.272;6.554;2023-04-07T14:17:44;10.70;99.90
4701;DHT22;8724;51.272;6.554;2023-04-07T14:20:13;10.80;99.90
4701;DHT22;8724;51.272;6.554;2023-04-07T14:22:42;10.70;99.90
4701;DHT22;8724;51.272;6.554;2023-04-07T14:25:11;10.80;99.90
4701;DHT22;8724;51.272;6.554;2023-04-07T14:27:40;10.80;99.90
4701;DHT22;8724;51.272;6.554;2023-04-07T14:30:09;10.80;99.90
4701;DHT22;8724;51.272;6.554;2023-04-07T14:32:38;10.60;99.90
4701;DHT22;8724;51.272;6.554;2023-04-07T14:35:07;10.80;99.90
4701;DHT22;8724;51.272;6.554;2023-04-07T14:37:35;10.80;99.90
4701;DHT22;8724;51.272;6.554;2023-04-07T14:40:07;10.80;99.90
4701;DHT22;8724;51.272;6.554;2023-04-07T14:42:35;10.80;99.90
4701;DHT22;8724;51.272;6.554;2023-04-07T14:45:05;10.80;99.90
4701;DHT22;8724;51.272;6.554;2023-04-07T14:47:34;10.60;99.90
4701;DHT22;8724;51.272;6.554;2023-04-07T14:50:03;10.90;99.90
4701;DHT22;8724;51.272;6.554;2023-04-07T14:52:32;10.90;99.90
4701;DHT22;8724;51.272;6.554;2023-04-07T14:55:00;10.90;99.90
4701;DHT22;8724;51.272;6.554;2023-04-07T14:57:30;10.90;99.90
4701;DHT22;8724;51.272;6.554;2023-04-07T14:59:58;10.90;99.90
4701;DHT22;8724;51.272;6.554;2023-04-07T15:02:27;10.90;99.90
4701;DHT22;8724;51.272;6.554;2023-04-07T15:04:58;10.90;99.90
4701;DHT22;8724;51.272;6.554;2023-04-07T15:07:26;10.90;99.90
4701;DHT22;8724;51.272;6.554;2023-04-07T15:09:55;10.90;99.90
4701;DHT22;8724;51.272;6.554;2023-04-07T15:12:26;11.00;99.90
4701;DHT22;8724;51.272;6.554;2023-04-07T15:14:58;10.70;99.90
4701;DHT22;8724;51.272;6.554;2023-04-07T15:17:27;11.00;99.90
4701;DHT22;8724;51.272;6.554;2023-04-07T15:20:10;11.10;99.90
4701;DHT22;8724;51.272;6.554;2023-04-07T15:22:39;11.00;99.90
4701;DHT22;8724;51.272;6.554;2023-04-07T15:25:08;11.00;99.90
4701;DHT22;8724;51.272;6.554;2023-04-07T15:27:36;11.00;99.90
4701;DHT22;8724;51.272;6.554;2023-04-07T15:30:07;11.00;99.90
4701;DHT22;8724;51.272;6.554;2023-04-07T15:32:36;10.90;99.90
4701;DHT22;8724;51.272;6.554;2023-04-07T15:35:05;10.90;99.90
4701;DHT22;8724;51.272;6.554;2023-04-07T15:37:34;11.00;99.90
4701;DHT22;8724;51.272;6.554;2023-04-07T15:40:02;11.00;99.90
4701;DHT22;8724;51.272;6.554;2023-04-07T15:42:31;11.00;99.90
4701;DHT22;8724;51.272;6.554;2023-04-07T15:45:10;11.00;99.90
4701;DHT22;8724;51.272;6.554;2023-04-07T15:47:39;11.00;99.90
4701;DHT22;8724;51.272;6.554;2023-04-07T15:50:08;11.00;99.90
4701;DHT22;8724;51.272;6.554;2023-04-07T15:52:37;11.00;99.90
4701;DHT22;8724;51.272;6.554;2023-04-07T15:55:05;11.00;99.90
4701;DHT22;8724;51.272;6.554;2023-04-07T15:57:34;11.00;99.90
4701;DHT22;8724;51.272;6.554;2023-04-07T16:00:03;11.10;99.90
4701;DHT22;8724;51.272;6.554;2023-04-07T16:02:33;11.10;99.90
4701;DHT22;8724;51.272;6.554;2023-04-07T16:05:02;11.10;99.90
4701;DHT22;8724;51.272;6.554;2023-04-07T16:07:30;11.10;99.90
4701;DHT22;8724;51.272;6.554;2023-04-07T16:09:59;11.10;99.90
4701;DHT22;8724;51.272;6.554;2023-04-07T16:12:27;11.10;99.90
4701;DHT22;8724;51.272;6.554;2023-04-07T16:14:56;11.10;99.90
4701;DHT22;8724;51.272;6.554;2023-04-07T16:17:24;11.10;99.90
4701;DHT22;8724;51.272;6.554;2023-04-07T16:19:55;11.10;99.90
4701;DHT22;8724;51.272;6.554;2023-04-07T16:22:24;11.10;99.90
4701;DHT22;8724;51.272;6.554;2023-04-07T16:24:53;11.10;99.90
4701;DHT22;8724;51.272;6.554;2023-04-07T16:27:21;11.10;99.90
4701;DHT22;8724;51.272;6.554;2023-04-07T16:29:49;11.20;99.90
4701;DHT22;8724;51.272;6.554;2023-04-07T16:32:18;11.20;99.90